createdAt,value
2023-02-16T00:00:28.668Z,50.93
2023-02-16T00:05:32.855Z,50.97
2023-02-16T00:10:37.990Z,52.26
2023-02-16T00:15:42.420Z,51.75
2023-02-16T00:20:46.373Z,51.51
2023-02-16T00:25:49.072Z,52.49
2023-02-16T00:30:53.183Z,52.87
2023-02-16T00:35:56.044Z,52.14
2023-02-16T00:40:58.761Z,52.67
2023-02-16T00:46:02.875Z,53.45
2023-02-16T00:51:20.294Z,54.17
2023-02-16T00:56:27.755Z,54.11
2023-02-16T01:01:33.368Z,53.68
2023-02-16T01:06:53.896Z,55.17
2023-02-16T01:11:56.736Z,55.01
2023-02-16T01:17:00.822Z,55.57
2023-02-16T01:22:05.628Z,54.59
2023-02-16T01:27:11.734Z,55.94
2023-02-16T01:32:15.874Z,56.09
2023-02-16T01:37:19.656Z,56.59
2023-02-16T01:42:30.930Z,56.38
2023-02-16T01:47:39.072Z,56.98
2023-02-16T01:52:43.731Z,58.06
2023-02-16T01:57:48.052Z,57.44
2023-02-16T02:02:55.476Z,57.59
2023-02-16T02:08:01.644Z,57.71
2023-02-16T02:13:07.796Z,57.78
2023-02-16T02:18:13.222Z,58.43
2023-02-16T02:23:40.690Z,58.28
2023-02-16T02:28:48.803Z,58.49
2023-02-16T02:33:58.070Z,58.93
2023-02-16T02:39:09.224Z,59.03
2023-02-16T02:44:14.171Z,59.10
2023-02-16T02:49:17.283Z,60.18
2023-02-16T02:54:40.241Z,59.91
2023-02-16T03:00:08.956Z,59.75
2023-02-16T03:05:14.091Z,60.29
2023-02-16T03:10:36.718Z,59.60
2023-02-16T03:15:41.223Z,59.99
2023-02-16T03:21:02.663Z,59.50
2023-02-16T03:26:23.456Z,60.55
2023-02-16T03:31:30.934Z,60.34
2023-02-16T03:36:36.818Z,59.72
2023-02-16T03:41:41.408Z,59.25
2023-02-16T03:46:45.769Z,61.53
2023-02-16T03:51:48.633Z,59.84
2023-02-16T03:56:51.329Z,60.11
2023-02-16T04:01:55.412Z,60.98
2023-02-16T04:06:58.181Z,61.34
2023-02-16T04:12:18.673Z,60.01
2023-02-16T04:17:22.813Z,61.39
2023-02-16T04:22:25.477Z,61.11
2023-02-16T04:27:28.222Z,61.58
2023-02-16T04:32:32.338Z,61.70
2023-02-16T04:37:35.245Z,61.89
2023-02-16T04:42:37.977Z,60.62
2023-02-16T04:47:42.121Z,61.44
2023-02-16T04:52:44.808Z,61.04
2023-02-16T04:57:47.648Z,61.99
2023-02-16T05:02:51.709Z,61.98
2023-02-16T05:07:54.413Z,61.50
2023-02-16T05:13:42.652Z,61.37
2023-02-16T05:18:46.781Z,60.88
2023-02-16T05:23:49.443Z,60.75
2023-02-16T05:28:52.175Z,61.42
2023-02-16T05:33:56.439Z,62.04
2023-02-16T05:38:59.131Z,61.71
2023-02-16T05:44:03.169Z,62.52
2023-02-16T05:49:07.791Z,61.25
2023-02-16T05:54:16.994Z,62.47
2023-02-16T05:59:20.019Z,61.87
2023-02-16T06:04:24.156Z,62.63
2023-02-16T06:09:26.980Z,62.52
2023-02-16T06:14:29.677Z,60.85
2023-02-16T06:19:33.692Z,62.48
2023-02-16T06:24:37.169Z,62.55
2023-02-16T06:29:39.894Z,62.84
2023-02-16T06:34:44.024Z,60.97
2023-02-16T06:39:46.737Z,62.36
2023-02-16T06:44:49.364Z,62.66
2023-02-16T06:49:53.387Z,61.83
2023-02-16T06:54:56.169Z,61.20
2023-02-16T06:59:58.833Z,59.75
2023-02-16T07:05:03.305Z,56.49
2023-02-16T07:10:07.271Z,54.61
2023-02-16T07:15:10.551Z,55.31
2023-02-16T07:20:14.984Z,53.39
2023-02-16T07:25:17.809Z,51.54
2023-02-16T07:30:20.964Z,53.09
2023-02-16T07:35:25.019Z,50.30
2023-02-16T07:40:28.083Z,52.93
2023-02-16T07:45:32.630Z,51.57
2023-02-16T07:50:37.146Z,51.17
2023-02-16T07:55:40.495Z,52.38
2023-02-16T08:00:43.176Z,51.14
2023-02-16T08:05:47.220Z,50.71
2023-02-16T08:10:49.871Z,49.92
2023-02-16T08:15:52.585Z,50.51
2023-02-16T08:21:04.095Z,50.46
2023-02-16T08:26:10.493Z,50.93
2023-02-16T08:31:13.434Z,52.26
2023-02-16T08:36:23.587Z,53.55
2023-02-16T08:41:30.504Z,52.25
2023-02-16T08:46:34.088Z,54.18
2023-02-16T08:51:42.981Z,56.39
2023-02-16T08:56:47.763Z,56.67
2023-02-16T09:01:50.443Z,55.63
2023-02-16T09:06:54.455Z,53.60
2023-02-16T09:11:57.736Z,54.96
2023-02-16T09:17:00.837Z,57.93
2023-02-16T09:22:36.791Z,56.38
2023-02-16T09:27:40.021Z,56.07
2023-02-16T09:32:43.238Z,56.62
2023-02-16T09:37:47.258Z,56.71
2023-02-16T09:43:01.758Z,55.83
2023-02-16T09:54:00.225Z,58.56
2023-02-16T09:59:06.788Z,58.78
2023-02-16T10:04:25.760Z,59.89
2023-02-16T10:09:30.533Z,60.12
2023-02-16T10:21:27.497Z,60.64
2023-02-16T10:26:35.202Z,60.61
2023-02-16T10:31:41.858Z,60.89
2023-02-16T10:36:55.997Z,61.07
2023-02-16T10:42:04.228Z,61.36
2023-02-16T10:47:12.605Z,61.63
2023-02-16T10:52:15.396Z,61.68
2023-02-16T10:57:26.551Z,61.96
2023-02-16T11:02:31.954Z,62.16
2023-02-16T11:07:34.700Z,62.20
2023-02-16T11:12:40.099Z,62.41
2023-02-16T11:17:52.466Z,61.98
2023-02-16T11:23:22.593Z,61.74
2023-02-16T11:28:32.312Z,60.23
2023-02-16T11:34:33.298Z,60.92
2023-02-16T11:45:10.129Z,61.69
2023-02-16T11:50:20.831Z,61.25
2023-02-16T11:55:27.864Z,60.82
2023-02-16T12:00:34.556Z,61.24
2023-02-16T12:23:40.956Z,62.66
2023-02-16T12:28:56.046Z,62.24
2023-02-16T12:34:07.351Z,62.87
2023-02-16T12:39:18.228Z,62.95
2023-02-16T12:44:26.734Z,63.44
2023-02-16T12:49:34.645Z,63.59
2023-02-16T12:54:39.985Z,63.32
2023-02-16T12:59:46.134Z,63.50
2023-02-16T13:04:53.371Z,63.29
2023-02-16T13:10:01.935Z,63.48
2023-02-16T13:15:10.898Z,63.30
2023-02-16T13:20:16.932Z,63.37
2023-02-16T13:25:45.287Z,63.96
2023-02-16T13:31:08.354Z,64.64
2023-02-16T13:36:52.137Z,64.33
2023-02-16T13:42:03.906Z,64.24
2023-02-16T13:47:07.180Z,64.41
2023-02-16T13:52:11.892Z,64.12
2023-02-16T13:57:18.323Z,64.18
2023-02-16T14:02:56.152Z,62.75
2023-02-16T14:08:19.037Z,60.45
2023-02-16T14:13:23.914Z,57.67
2023-02-16T14:18:32.673Z,56.37
2023-02-16T14:23:36.748Z,54.82
2023-02-16T14:29:00.476Z,52.75
2023-02-16T14:34:06.701Z,50.85
2023-02-16T14:39:13.253Z,49.72
2023-02-16T14:44:44.689Z,49.13
2023-02-16T14:50:09.220Z,47.38
2023-02-16T14:55:51.802Z,47.19
2023-02-16T15:00:58.084Z,46.84
2023-02-16T15:06:12.822Z,47.33
2023-02-16T15:11:21.362Z,47.87
2023-02-16T15:16:24.661Z,48.37
2023-02-16T15:21:30.618Z,48.52
2023-02-16T15:26:36.077Z,47.84
2023-02-16T15:37:23.451Z,45.40
2023-02-16T15:42:29.556Z,45.78
2023-02-16T15:47:32.397Z,46.19
2023-02-16T15:52:36.282Z,46.43
2023-02-16T15:57:42.041Z,47.66
2023-02-16T16:02:47.405Z,47.62
2023-02-16T16:07:50.940Z,48.01
2023-02-16T16:12:59.256Z,48.73
2023-02-16T16:18:05.183Z,48.58
2023-02-16T16:23:26.002Z,49.12
2023-02-16T16:28:37.913Z,46.01
2023-02-16T16:33:53.699Z,45.33
2023-02-16T16:39:12.144Z,46.38
2023-02-16T16:44:32.335Z,46.34
2023-02-16T16:49:35.486Z,46.76
2023-02-16T16:54:46.303Z,47.41
2023-02-16T16:59:50.339Z,47.54
2023-02-16T17:04:53.058Z,47.79
2023-02-16T17:09:55.879Z,48.09
2023-02-16T17:15:01.122Z,48.14
2023-02-16T17:20:03.877Z,48.52
2023-02-16T17:25:07.095Z,47.43
2023-02-16T17:30:13.174Z,46.36
2023-02-16T17:35:16.131Z,46.87
2023-02-16T17:40:21.604Z,45.90
2023-02-16T17:45:35.111Z,46.14
2023-02-16T17:50:37.863Z,46.14
2023-02-16T17:55:40.794Z,46.78
2023-02-16T18:00:45.882Z,47.47
2023-02-16T18:05:48.629Z,47.86
2023-02-16T18:10:53.029Z,48.19
2023-02-16T18:15:57.773Z,48.38
2023-02-16T18:21:00.745Z,49.41
2023-02-16T18:26:03.832Z,49.44
2023-02-16T18:31:08.637Z,47.69
2023-02-16T18:36:11.457Z,47.77
2023-02-16T18:41:14.346Z,47.38
2023-02-16T18:46:18.653Z,46.85
2023-02-16T18:51:23.682Z,46.65
2023-02-16T18:56:27.502Z,46.72
2023-02-16T19:01:33.189Z,46.43
2023-02-16T19:06:36.056Z,46.53
2023-02-16T19:11:38.874Z,47.09
2023-02-16T19:16:42.993Z,47.25
2023-02-16T19:21:45.851Z,47.28
2023-02-16T19:26:48.613Z,47.64
2023-02-16T19:31:52.778Z,48.83
2023-02-16T19:36:55.501Z,47.87
2023-02-16T19:41:58.388Z,46.99
2023-02-16T19:47:03.221Z,47.06
2023-02-16T19:52:06.458Z,46.74
2023-02-16T19:57:09.211Z,46.42
2023-02-16T20:02:15.447Z,46.49
2023-02-16T20:07:18.210Z,46.34
2023-02-16T20:12:21.016Z,46.46
2023-02-16T20:17:25.830Z,46.37
2023-02-16T20:22:28.886Z,46.70
2023-02-16T20:27:31.643Z,47.08
2023-02-16T20:32:35.811Z,47.70
2023-02-16T20:37:38.599Z,48.69
2023-02-16T20:42:41.448Z,48.22
2023-02-16T20:47:45.506Z,47.05
2023-02-16T20:52:48.216Z,46.56
2023-02-16T20:57:51.042Z,46.29
2023-02-16T21:02:55.294Z,46.04
2023-02-16T21:07:58.245Z,45.90
2023-02-16T21:13:01.074Z,45.65
2023-02-16T21:18:06.252Z,46.09
2023-02-16T21:23:08.995Z,45.96
2023-02-16T21:28:11.694Z,46.25
2023-02-16T21:33:15.817Z,46.75
2023-02-16T21:38:18.550Z,47.05
2023-02-16T21:43:21.240Z,48.06
2023-02-16T21:48:43.027Z,48.49
2023-02-16T21:53:46.220Z,47.48
2023-02-16T21:58:48.981Z,46.91
2023-02-16T22:03:56.226Z,46.45
2023-02-16T22:08:59.519Z,45.92
2023-02-16T22:14:03.043Z,45.51
2023-02-16T22:19:09.515Z,45.59
2023-02-16T22:24:13.280Z,45.39
2023-02-16T22:29:16.145Z,45.56
2023-02-16T22:34:21.806Z,45.69
2023-02-16T22:39:24.565Z,46.34
2023-02-16T22:44:27.357Z,46.78
2023-02-16T22:49:31.612Z,47.11
2023-02-16T22:54:34.325Z,48.12
2023-02-16T22:59:37.168Z,48.27
2023-02-16T23:04:43.221Z,47.48
2023-02-16T23:09:46.085Z,47.04
2023-02-16T23:14:48.987Z,47.04
2023-02-16T23:19:53.191Z,46.42
2023-02-16T23:25:09.983Z,45.84
2023-02-16T23:30:13.310Z,45.89
2023-02-16T23:35:17.578Z,45.83
2023-02-16T23:40:20.590Z,45.86
2023-02-16T23:45:23.377Z,46.03
2023-02-16T23:50:27.665Z,46.44
2023-02-16T23:55:30.519Z,46.87
